YRO weather

Ottawa / Rockcliffe Airport
Ottawa, Ontario, Canada

Public forecast

Using degrees Celsius for public forecast. Weather courtesy of forecast.io.

Closest aviation weather report (METAR) to Ottawa / Rockcliffe Airport

Report is more than 2 hours old.

Closest report is Ottawa / Gatineau Airport, 5.1 nm (9.4 km) NE. Retrieved 2019/10/21 01:00 UTC (4 hours ago):

CYND 210100Z 05004KT 15SM FEW140 SCT240 08/04 A2999 RMK AC2CI2 LAST STFD OBS/NEXT 211100 UTC SLP160

Closest aviation forecast (TAF) to Ottawa / Rockcliffe Airport

Forecast is more than 6 hours old.

Closest forecast is Ottawa / Gatineau Airport, 5.1 nm (9.4 km) NE. Retrieved 2019/10/20 18:00 UTC (11 hours ago):

TAF CYND 201739Z 2018/2101 11008KT P6SM FEW160 BECMG 2022/2024 VRB03KT RMK NXT FCST WILL BE ISSUED AT 211245Z